createdAt,value
2023-03-26T00:02:47.856Z,8.49
2023-03-26T00:06:09.609Z,8.50
2023-03-26T00:09:17.791Z,8.40
2023-03-26T00:12:29.288Z,8.40
2023-03-26T00:15:37.284Z,8.23
2023-03-26T00:18:46.227Z,8.23
2023-03-26T00:21:53.783Z,8.38
2023-03-26T00:25:03.713Z,8.37
2023-03-26T00:28:12.850Z,8.39
2023-03-26T00:31:21.584Z,8.37
2023-03-26T00:34:29.273Z,8.41
2023-03-26T00:37:40.929Z,8.16
2023-03-26T00:40:51.164Z,8.26
2023-03-26T00:44:08.454Z,8.28
2023-03-26T00:47:16.576Z,8.26
2023-03-26T00:50:26.594Z,8.37
2023-03-26T00:53:33.869Z,8.08
2023-03-26T00:56:43.895Z,7.80
2023-03-26T00:59:53.877Z,7.91
2023-03-26T01:03:03.086Z,8.06
2023-03-26T01:06:23.707Z,8.02
2023-03-26T01:09:39.078Z,8.11
2023-03-26T01:12:46.235Z,8.03
2023-03-26T01:15:59.975Z,7.91
2023-03-26T01:19:18.038Z,7.66
2023-03-26T01:22:27.339Z,7.62
2023-03-26T01:25:41.283Z,7.44
2023-03-26T01:28:53.951Z,7.21
2023-03-26T01:32:19.291Z,7.32
2023-03-26T01:35:52.378Z,7.35
2023-03-26T01:39:03.473Z,7.21
2023-03-26T01:42:15.440Z,7.16
2023-03-26T01:45:25.634Z,7.53
2023-03-26T01:48:35.578Z,7.64
2023-03-26T01:51:45.910Z,7.34
2023-03-26T01:54:55.406Z,7.35
2023-03-26T01:58:10.448Z,7.88
2023-03-26T02:01:33.505Z,7.78
2023-03-26T02:04:56.157Z,7.67
2023-03-26T02:08:04.361Z,7.62
2023-03-26T02:11:14.313Z,7.41
2023-03-26T02:14:23.925Z,7.34
2023-03-26T02:17:35.047Z,7.29
2023-03-26T02:20:44.207Z,7.26
2023-03-26T02:23:58.228Z,7.26
2023-03-26T02:27:08.792Z,7.14
2023-03-26T02:30:19.023Z,7.10
2023-03-26T02:33:27.520Z,6.90
2023-03-26T02:36:37.892Z,6.79
2023-03-26T02:39:47.592Z,6.66
2023-03-26T02:42:57.086Z,6.56
2023-03-26T02:46:04.677Z,6.43
2023-03-26T02:49:15.550Z,6.30
2023-03-26T02:52:28.847Z,6.19
2023-03-26T02:55:37.110Z,6.05
2023-03-26T02:58:45.541Z,6.07
2023-03-26T03:01:54.652Z,5.99
2023-03-26T03:05:09.612Z,6.02
2023-03-26T03:08:19.515Z,5.96
2023-03-26T03:11:32.541Z,5.84
2023-03-26T03:14:39.123Z,5.77
2023-03-26T03:17:49.294Z,5.82
2023-03-26T03:20:56.869Z,5.80
2023-03-26T03:24:07.673Z,5.70
2023-03-26T03:27:20.011Z,5.64
2023-03-26T03:30:31.616Z,5.54
2023-03-26T03:33:42.851Z,5.59
2023-03-26T03:36:52.052Z,5.75
2023-03-26T03:40:03.240Z,5.73
2023-03-26T03:43:18.410Z,5.62
2023-03-26T03:46:27.634Z,5.59
2023-03-26T03:49:37.737Z,5.54
2023-03-26T03:52:46.900Z,5.58
2023-03-26T03:55:56.693Z,5.59
2023-03-26T03:59:06.322Z,5.58
2023-03-26T04:02:14.315Z,5.52
2023-03-26T04:05:22.957Z,5.51
2023-03-26T04:08:37.295Z,5.48
2023-03-26T04:11:46.278Z,5.43
2023-03-26T04:14:58.316Z,5.37
2023-03-26T04:18:11.961Z,5.34
2023-03-26T04:21:21.261Z,5.31
2023-03-26T04:24:31.465Z,5.32
2023-03-26T04:27:45.550Z,5.65
2023-03-26T04:30:59.070Z,5.61
2023-03-26T04:34:17.336Z,5.58
2023-03-26T04:37:41.720Z,5.51
2023-03-26T04:40:51.792Z,5.46
2023-03-26T04:44:06.415Z,5.61
2023-03-26T04:47:16.291Z,5.56
2023-03-26T04:50:24.954Z,5.56
2023-03-26T04:53:33.321Z,5.80
2023-03-26T04:56:54.345Z,6.05
2023-03-26T05:00:05.631Z,5.97
2023-03-26T05:03:14.943Z,6.02
2023-03-26T05:06:26.832Z,6.25
2023-03-26T05:09:36.385Z,6.51
2023-03-26T05:12:48.451Z,6.74
2023-03-26T05:15:57.488Z,6.99
2023-03-26T05:19:08.120Z,7.26
2023-03-26T05:22:16.818Z,7.59
2023-03-26T05:25:34.512Z,7.96
2023-03-26T05:28:47.372Z,8.05
2023-03-26T05:32:02.920Z,8.13
2023-03-26T05:35:11.735Z,8.26
2023-03-26T05:38:20.934Z,8.35
2023-03-26T05:41:29.980Z,8.34
2023-03-26T05:44:39.267Z,8.31
2023-03-26T05:47:52.358Z,8.19
2023-03-26T05:51:03.123Z,8.22
2023-03-26T05:54:10.467Z,8.49
2023-03-26T05:57:20.145Z,8.65
2023-03-26T06:00:32.011Z,9.01
2023-03-26T06:03:41.163Z,9.39
2023-03-26T06:06:48.713Z,9.78
2023-03-26T06:09:58.142Z,9.80
2023-03-26T06:13:07.596Z,9.77
2023-03-26T06:16:26.957Z,9.96
2023-03-26T06:19:36.487Z,10.07
2023-03-26T06:22:45.704Z,10.26
2023-03-26T06:25:56.669Z,10.39
2023-03-26T06:29:07.985Z,10.60
2023-03-26T06:32:20.483Z,11.18
2023-03-26T06:35:31.072Z,11.61
2023-03-26T06:38:38.190Z,11.83
2023-03-26T06:41:48.042Z,11.50
2023-03-26T06:44:58.337Z,11.48
2023-03-26T06:48:11.732Z,11.57
2023-03-26T06:51:21.477Z,12.11
2023-03-26T06:54:32.786Z,12.58
2023-03-26T06:57:41.336Z,12.14
2023-03-26T07:00:49.424Z,12.56
2023-03-26T07:04:01.168Z,12.15
2023-03-26T07:07:25.673Z,12.55
2023-03-26T07:10:37.392Z,13.55
2023-03-26T07:13:49.487Z,14.55
2023-03-26T07:16:59.305Z,15.11
2023-03-26T07:20:11.181Z,14.93
2023-03-26T07:23:24.330Z,14.95
2023-03-26T07:26:47.791Z,15.58
2023-03-26T07:30:07.796Z,15.92
2023-03-26T07:33:32.764Z,15.97
2023-03-26T07:37:01.023Z,17.07
2023-03-26T07:40:21.591Z,15.89
2023-03-26T07:43:29.227Z,16.03
2023-03-26T07:46:39.032Z,16.01
2023-03-26T07:49:45.281Z,16.74
2023-03-26T07:52:51.727Z,16.21
2023-03-26T07:56:12.779Z,15.87
2023-03-26T07:59:35.634Z,16.14
2023-03-26T08:02:48.184Z,15.92
2023-03-26T08:06:06.443Z,15.41
2023-03-26T08:09:37.904Z,14.12
2023-03-26T08:12:56.344Z,14.00
2023-03-26T08:16:09.461Z,13.71
2023-03-26T08:19:28.844Z,13.86
2023-03-26T08:22:39.657Z,14.33
2023-03-26T08:25:54.489Z,13.74
2023-03-26T08:29:12.799Z,13.33
2023-03-26T08:32:20.389Z,13.14
2023-03-26T08:35:28.013Z,13.18
2023-03-26T08:38:39.158Z,13.10
2023-03-26T08:42:05.916Z,13.21
2023-03-26T08:45:32.714Z,13.72
2023-03-26T08:49:04.443Z,14.12
2023-03-26T08:52:13.135Z,13.79
2023-03-26T08:55:39.725Z,13.71
2023-03-26T08:58:49.898Z,14.03
2023-03-26T09:01:58.323Z,14.11
2023-03-26T09:05:25.849Z,14.17
2023-03-26T09:08:53.832Z,14.16
2023-03-26T09:12:21.011Z,14.55
2023-03-26T09:15:36.871Z,14.86
2023-03-26T09:18:55.607Z,14.90
2023-03-26T09:22:03.189Z,15.48
2023-03-26T09:25:27.452Z,16.07
2023-03-26T09:28:53.265Z,15.94
2023-03-26T09:32:16.432Z,15.59
2023-03-26T09:35:44.352Z,15.30
2023-03-26T09:39:03.278Z,15.78
2023-03-26T09:42:28.454Z,15.58
2023-03-26T09:45:44.937Z,15.64
2023-03-26T09:48:57.270Z,15.43
2023-03-26T09:52:22.542Z,15.26
2023-03-26T09:55:42.650Z,14.69
2023-03-26T09:58:52.301Z,14.83
2023-03-26T10:02:05.710Z,14.92
2023-03-26T10:05:35.524Z,14.77
2023-03-26T10:08:47.451Z,14.87
2023-03-26T10:12:12.166Z,14.83
2023-03-26T10:15:39.407Z,14.72
2023-03-26T10:19:10.291Z,15.04
2023-03-26T10:22:28.336Z,15.08
2023-03-26T10:25:44.108Z,14.96
2023-03-26T10:28:55.713Z,15.18
2023-03-26T10:32:20.979Z,15.21
2023-03-26T10:35:55.060Z,15.10
2023-03-26T10:39:11.781Z,14.98
2023-03-26T10:43:01.658Z,14.79
2023-03-26T10:46:26.797Z,14.09
2023-03-26T10:49:42.311Z,14.22
2023-03-26T10:52:57.092Z,14.30
2023-03-26T10:56:25.171Z,14.71
2023-03-26T10:59:32.640Z,15.23
2023-03-26T11:02:45.668Z,15.17
2023-03-26T11:06:11.467Z,15.51
2023-03-26T11:09:29.920Z,16.91
2023-03-26T11:12:53.853Z,20.16
2023-03-26T11:16:08.104Z,20.16
2023-03-26T11:19:18.186Z,19.03
2023-03-26T11:22:32.639Z,17.05
2023-03-26T11:25:48.521Z,16.93
2023-03-26T11:29:03.570Z,20.92
2023-03-26T11:32:18.032Z,23.68
2023-03-26T11:35:40.434Z,24.75
2023-03-26T11:38:57.589Z,22.94
2023-03-26T11:42:07.879Z,20.70
2023-03-26T11:45:20.160Z,21.61
2023-03-26T11:48:35.978Z,24.90
2023-03-26T11:51:46.389Z,25.45
2023-03-26T11:54:55.890Z,24.06
2023-03-26T11:58:06.838Z,26.32
2023-03-26T12:01:23.083Z,28.93
2023-03-26T12:04:41.848Z,30.32
2023-03-26T12:07:51.284Z,28.99
2023-03-26T12:11:05.394Z,30.07
2023-03-26T12:14:20.440Z,30.19
2023-03-26T12:17:33.427Z,26.80
2023-03-26T12:20:39.524Z,25.09
2023-03-26T12:24:00.241Z,23.75
2023-03-26T12:27:08.901Z,23.56
2023-03-26T12:30:30.261Z,21.10
2023-03-26T12:33:36.358Z,18.64
2023-03-26T12:36:50.141Z,21.59
2023-03-26T12:40:17.058Z,25.08
2023-03-26T12:44:53.414Z,23.55
2023-03-26T12:47:57.824Z,23.83
2023-03-26T12:50:54.749Z,25.44
2023-03-26T12:54:15.580Z,24.88
2023-03-26T12:57:43.373Z,25.65
2023-03-26T13:01:08.807Z,27.00
2023-03-26T13:04:35.566Z,22.70
2023-03-26T13:07:45.068Z,25.24
2023-03-26T13:11:10.736Z,25.58
2023-03-26T13:14:35.536Z,25.14
2023-03-26T13:17:51.715Z,23.03
2023-03-26T13:20:59.884Z,27.69
2023-03-26T13:24:30.069Z,28.90
2023-03-26T13:27:46.003Z,28.76
2023-03-26T13:30:55.965Z,27.49
2023-03-26T13:34:01.515Z,25.18
2023-03-26T13:37:12.119Z,23.84
2023-03-26T13:40:25.769Z,25.36
2023-03-26T13:43:51.042Z,23.54
2023-03-26T13:47:05.320Z,23.66
2023-03-26T13:50:22.012Z,24.11
2023-03-26T13:53:31.873Z,28.53
2023-03-26T13:56:57.426Z,29.55
2023-03-26T14:00:07.823Z,28.65
2023-03-26T14:03:26.190Z,26.95
2023-03-26T14:06:36.133Z,28.19
2023-03-26T14:10:20.999Z,29.15
2023-03-26T14:13:40.521Z,29.68
2023-03-26T14:16:51.837Z,27.31
2023-03-26T14:20:21.001Z,28.77
2023-03-26T14:23:36.895Z,25.75
2023-03-26T14:26:48.737Z,24.89
2023-03-26T14:30:00.989Z,23.44
2023-03-26T14:33:35.359Z,24.23
2023-03-26T14:36:48.613Z,24.19
2023-03-26T14:40:00.103Z,22.14
2023-03-26T14:43:30.603Z,20.28
2023-03-26T14:46:54.243Z,20.65
2023-03-26T14:50:06.279Z,21.00
2023-03-26T14:53:47.806Z,20.09
2023-03-26T14:57:14.210Z,18.74
2023-03-26T15:00:45.888Z,18.02
2023-03-26T15:04:10.786Z,17.70
2023-03-26T15:07:35.153Z,17.55
2023-03-26T15:10:49.665Z,17.41
2023-03-26T15:14:12.766Z,17.33
2023-03-26T15:17:32.293Z,17.38
2023-03-26T15:20:59.726Z,17.18
2023-03-26T15:24:13.364Z,17.09
2023-03-26T15:27:43.024Z,17.07
2023-03-26T15:31:00.879Z,16.90
2023-03-26T15:34:12.546Z,16.70
2023-03-26T15:37:35.426Z,16.59
2023-03-26T15:41:01.779Z,16.55
2023-03-26T15:44:24.640Z,16.45
2023-03-26T15:47:36.557Z,16.48
2023-03-26T15:50:56.785Z,16.41
2023-03-26T15:54:09.135Z,16.45
2023-03-26T15:57:32.692Z,16.39
2023-03-26T16:00:49.385Z,16.37
2023-03-26T16:03:58.556Z,16.35
2023-03-26T16:07:05.093Z,16.17
2023-03-26T16:10:35.533Z,16.09
2023-03-26T16:13:43.649Z,15.95
2023-03-26T16:16:58.432Z,15.76
2023-03-26T16:20:24.556Z,15.73
2023-03-26T16:23:47.494Z,15.62
2023-03-26T16:27:00.939Z,15.55
2023-03-26T16:30:20.748Z,15.44
2023-03-26T16:33:36.772Z,15.29
2023-03-26T16:36:43.266Z,15.19
2023-03-26T16:39:48.138Z,15.08
2023-03-26T16:43:12.147Z,15.04
2023-03-26T16:46:28.113Z,15.03
2023-03-26T16:50:07.494Z,14.92
2023-03-26T16:53:18.106Z,14.91
2023-03-26T16:57:02.898Z,14.78
2023-03-26T17:00:18.433Z,14.65
2023-03-26T17:03:36.609Z,14.52
2023-03-26T17:07:02.257Z,14.42
2023-03-26T17:10:15.208Z,14.34
2023-03-26T17:13:28.566Z,14.20
2023-03-26T17:16:37.536Z,14.22
2023-03-26T17:19:57.157Z,14.08
2023-03-26T17:23:11.004Z,14.05
2023-03-26T17:26:23.004Z,14.09
2023-03-26T17:29:44.833Z,13.91
2023-03-26T17:33:01.167Z,13.71
2023-03-26T17:36:14.738Z,13.81
2023-03-26T17:39:21.821Z,13.86
2023-03-26T17:42:28.946Z,13.81
2023-03-26T17:45:35.717Z,13.85
2023-03-26T17:48:50.793Z,13.74
2023-03-26T17:51:59.351Z,13.78
2023-03-26T17:55:10.512Z,13.85
2023-03-26T17:58:26.307Z,13.88
2023-03-26T18:01:37.658Z,13.88
2023-03-26T18:04:49.523Z,13.84
2023-03-26T18:08:15.486Z,13.80
2023-03-26T18:11:25.926Z,13.83
2023-03-26T18:14:50.311Z,13.87
2023-03-26T18:18:02.785Z,13.87
2023-03-26T18:21:14.859Z,13.91
2023-03-26T18:24:29.212Z,13.87
2023-03-26T18:27:47.780Z,13.91
2023-03-26T18:30:54.620Z,13.92
2023-03-26T18:34:09.463Z,13.87
2023-03-26T18:37:21.981Z,13.92
2023-03-26T18:40:34.782Z,13.86
2023-03-26T18:43:44.356Z,13.88
2023-03-26T18:46:56.424Z,13.84
2023-03-26T18:50:06.431Z,13.76
2023-03-26T18:53:22.790Z,13.70
2023-03-26T18:56:38.879Z,13.74
2023-03-26T18:59:46.448Z,13.76
2023-03-26T19:03:05.025Z,13.68
2023-03-26T19:06:17.431Z,13.62
2023-03-26T19:09:32.214Z,13.58
2023-03-26T19:12:41.277Z,13.53
2023-03-26T19:15:51.057Z,13.45
2023-03-26T19:18:55.597Z,13.44
2023-03-26T19:22:00.132Z,13.43
2023-03-26T19:25:09.215Z,13.45
2023-03-26T19:28:24.311Z,13.47
2023-03-26T19:31:37.823Z,13.47
2023-03-26T19:34:47.600Z,13.42
2023-03-26T19:37:58.000Z,13.34
2023-03-26T19:41:05.990Z,13.34
2023-03-26T19:44:30.647Z,13.29
2023-03-26T19:47:48.592Z,13.04
2023-03-26T19:51:04.205Z,12.95
2023-03-26T19:54:17.136Z,12.91
2023-03-26T19:57:25.833Z,12.94
2023-03-26T20:00:36.285Z,12.96
2023-03-26T20:03:46.600Z,12.94
2023-03-26T20:06:56.630Z,12.87
2023-03-26T20:10:03.444Z,12.80
2023-03-26T20:13:18.877Z,12.85
2023-03-26T20:16:30.501Z,12.82
2023-03-26T20:19:36.290Z,12.80
2023-03-26T20:22:43.161Z,12.77
2023-03-26T20:25:53.201Z,12.70
2023-03-26T20:29:04.803Z,12.60
2023-03-26T20:32:26.984Z,12.59
2023-03-26T20:35:36.663Z,12.53
2023-03-26T20:38:47.057Z,12.55
2023-03-26T20:41:55.459Z,12.53
2023-03-26T20:45:03.420Z,12.53
2023-03-26T20:48:13.699Z,12.56
2023-03-26T20:51:23.279Z,12.53
2023-03-26T20:54:32.373Z,12.52
2023-03-26T20:57:42.195Z,12.55
2023-03-26T21:00:53.850Z,12.50
2023-03-26T21:04:01.513Z,12.48
2023-03-26T21:07:18.202Z,12.45
2023-03-26T21:10:27.230Z,12.52
2023-03-26T21:13:32.463Z,12.56
2023-03-26T21:16:37.832Z,12.54
2023-03-26T21:19:45.776Z,12.50
2023-03-26T21:23:05.832Z,12.47
2023-03-26T21:26:20.451Z,12.49
2023-03-26T21:29:31.621Z,12.47
2023-03-26T21:32:38.742Z,12.63
2023-03-26T21:35:44.303Z,12.55
2023-03-26T21:38:51.784Z,12.48
2023-03-26T21:42:05.328Z,12.32
2023-03-26T21:45:18.357Z,11.77
2023-03-26T21:48:28.818Z,10.85
2023-03-26T21:51:39.314Z,10.53
2023-03-26T21:54:46.867Z,10.52
2023-03-26T21:58:12.472Z,10.51
2023-03-26T22:01:21.024Z,10.62
2023-03-26T22:04:38.914Z,10.66
2023-03-26T22:07:48.857Z,10.75
2023-03-26T22:10:56.225Z,10.83
2023-03-26T22:14:04.761Z,10.86
2023-03-26T22:17:18.546Z,10.85
2023-03-26T22:20:30.258Z,10.96
2023-03-26T22:23:45.778Z,10.97
2023-03-26T22:26:52.069Z,10.92
2023-03-26T22:30:01.824Z,10.69
2023-03-26T22:33:12.247Z,10.54
2023-03-26T22:36:23.521Z,10.33
2023-03-26T22:39:31.319Z,9.98
2023-03-26T22:42:45.116Z,9.62
2023-03-26T22:45:56.183Z,9.30
2023-03-26T22:49:08.886Z,9.14
2023-03-26T22:52:17.005Z,8.87
2023-03-26T22:55:29.061Z,8.64
2023-03-26T22:58:38.939Z,8.56
2023-03-26T23:01:47.647Z,8.45
2023-03-26T23:04:57.752Z,8.44
2023-03-26T23:08:06.847Z,8.43
2023-03-26T23:11:19.213Z,8.63
2023-03-26T23:14:34.290Z,8.63
2023-03-26T23:17:41.778Z,8.71
2023-03-26T23:20:59.329Z,8.72
2023-03-26T23:24:10.981Z,8.85
2023-03-26T23:27:24.166Z,8.98
2023-03-26T23:30:31.703Z,8.96
2023-03-26T23:33:47.279Z,8.88
2023-03-26T23:36:58.961Z,8.92
2023-03-26T23:40:11.959Z,8.93
2023-03-26T23:43:21.017Z,8.92
2023-03-26T23:46:35.624Z,8.98
2023-03-26T23:49:44.694Z,8.92
2023-03-26T23:52:53.763Z,8.85
2023-03-26T23:56:01.489Z,8.77
2023-03-26T23:59:10.263Z,8.64
